createdAt,value
2023-03-21T00:00:56.467Z,9.10
2023-03-21T00:03:24.875Z,9.00
2023-03-21T00:05:54.127Z,9.00
2023-03-21T00:08:23.916Z,9.00
2023-03-21T00:10:59.445Z,9.10
2023-03-21T00:13:33.019Z,8.90
2023-03-21T00:16:17.722Z,9.00
2023-03-21T00:18:55.539Z,9.00
2023-03-21T00:24:17.125Z,9.10
2023-03-21T00:26:46.723Z,9.10
2023-03-21T00:29:15.236Z,9.10
2023-03-21T00:31:43.624Z,9.00
2023-03-21T00:36:40.897Z,9.20
2023-03-21T00:39:09.127Z,9.10
2023-03-21T00:41:44.856Z,9.10
2023-03-21T00:44:15.849Z,8.90
2023-03-21T00:46:57.385Z,9.00
2023-03-21T00:49:33.940Z,9.00
2023-03-21T00:52:15.216Z,9.00
2023-03-21T00:54:47.151Z,9.00
2023-03-21T00:57:15.433Z,8.90
2023-03-21T00:59:44.946Z,9.00
2023-03-21T01:02:14.998Z,9.00
2023-03-21T01:04:43.655Z,9.00
2023-03-21T01:07:11.984Z,8.70
2023-03-21T01:09:40.115Z,8.80
2023-03-21T01:12:08.636Z,8.70
2023-03-21T01:14:37.040Z,8.80
2023-03-21T01:17:07.103Z,8.70
2023-03-21T01:19:50.726Z,8.90
2023-03-21T01:22:19.626Z,8.80
2023-03-21T01:24:55.190Z,8.70
2023-03-21T01:27:26.946Z,8.80
2023-03-21T01:29:55.020Z,8.90
2023-03-21T01:32:24.822Z,8.80
2023-03-21T01:34:53.352Z,8.70
2023-03-21T01:37:21.471Z,8.80
2023-03-21T01:39:49.539Z,8.90
2023-03-21T01:42:17.665Z,8.70
2023-03-21T01:44:57.310Z,8.70
2023-03-21T01:47:27.137Z,8.80
2023-03-21T01:50:00.688Z,8.70
2023-03-21T01:52:37.542Z,8.90
2023-03-21T01:55:11.827Z,8.90
2023-03-21T01:57:54.900Z,8.80
2023-03-21T02:00:31.820Z,8.80
2023-03-21T02:03:13.731Z,8.80
2023-03-21T02:05:53.720Z,8.90
2023-03-21T02:08:33.356Z,8.90
2023-03-21T02:11:07.296Z,8.80
2023-03-21T02:13:36.773Z,8.60
2023-03-21T02:16:15.338Z,8.70
2023-03-21T02:18:53.891Z,8.70
2023-03-21T02:21:55.676Z,8.80
2023-03-21T02:24:48.938Z,8.80
2023-03-21T02:27:23.917Z,8.80
2023-03-21T02:30:28.795Z,8.90
2023-03-21T02:33:18.829Z,8.70
2023-03-21T02:36:11.935Z,8.80
2023-03-21T02:38:49.281Z,8.80
2023-03-21T02:41:21.285Z,8.90
2023-03-21T02:43:57.081Z,8.90
2023-03-21T02:46:43.824Z,8.80
2023-03-21T02:49:19.387Z,8.70
2023-03-21T02:51:49.799Z,8.90
2023-03-21T02:54:32.598Z,8.80
2023-03-21T02:57:05.527Z,8.80
2023-03-21T02:59:41.735Z,8.80
2023-03-21T03:02:13.876Z,8.80
2023-03-21T03:04:42.348Z,8.70
2023-03-21T03:07:28.414Z,8.90
2023-03-21T03:10:25.224Z,8.80
2023-03-21T03:13:05.054Z,8.90
2023-03-21T03:15:46.052Z,8.80
2023-03-21T03:18:20.839Z,8.90
2023-03-21T03:20:56.672Z,8.60
2023-03-21T03:23:31.838Z,8.50
2023-03-21T03:26:06.311Z,8.70
2023-03-21T03:28:39.216Z,8.80
2023-03-21T03:31:10.130Z,8.80
2023-03-21T03:33:42.403Z,8.80
2023-03-21T03:36:30.329Z,8.80
2023-03-21T03:39:01.659Z,8.90
2023-03-21T03:41:50.224Z,8.80
2023-03-21T03:44:20.422Z,8.80
2023-03-21T03:46:54.668Z,8.80
2023-03-21T03:49:25.977Z,8.90
2023-03-21T03:51:59.026Z,8.80
2023-03-21T03:54:32.284Z,8.90
2023-03-21T03:57:02.920Z,8.90
2023-03-21T03:59:31.081Z,8.90
2023-03-21T04:01:59.448Z,8.90
2023-03-21T04:04:29.327Z,8.90
2023-03-21T04:06:58.207Z,8.90
2023-03-21T04:09:41.161Z,8.90
2023-03-21T04:12:13.131Z,8.90
2023-03-21T04:14:47.201Z,8.80
2023-03-21T04:17:16.782Z,8.80
2023-03-21T04:19:45.594Z,8.90
2023-03-21T04:22:14.276Z,8.90
2023-03-21T04:24:42.771Z,8.80
2023-03-21T04:27:13.847Z,8.90
2023-03-21T04:29:42.149Z,8.90
2023-03-21T04:32:19.781Z,8.80
2023-03-21T04:34:50.073Z,8.90
2023-03-21T04:37:19.358Z,9.00
2023-03-21T04:39:47.796Z,8.80
2023-03-21T04:42:19.175Z,8.70
2023-03-21T04:44:47.396Z,8.80
2023-03-21T04:47:16.228Z,8.70
2023-03-21T04:49:44.389Z,8.80
2023-03-21T04:52:12.484Z,8.80
2023-03-21T04:54:40.613Z,8.80
2023-03-21T04:57:09.211Z,8.80
2023-03-21T04:59:38.684Z,8.80
2023-03-21T05:02:07.403Z,8.80
2023-03-21T05:04:35.492Z,8.80
2023-03-21T05:07:03.648Z,8.80
2023-03-21T05:09:31.739Z,8.90
2023-03-21T05:12:00.334Z,8.90
2023-03-21T05:14:28.633Z,8.90
2023-03-21T05:16:58.616Z,8.90
2023-03-21T05:19:34.837Z,8.80
2023-03-21T05:22:05.677Z,8.90
2023-03-21T05:24:34.907Z,8.90
2023-03-21T05:27:03.241Z,8.90
2023-03-21T05:29:33.152Z,8.80
2023-03-21T05:32:03.385Z,8.90
2023-03-21T05:34:32.204Z,8.80
2023-03-21T05:37:00.789Z,8.80
2023-03-21T05:39:29.337Z,8.80
2023-03-21T05:41:57.646Z,8.80
2023-03-21T05:44:26.031Z,8.70
2023-03-21T05:46:54.435Z,8.80
2023-03-21T05:49:24.567Z,8.70
2023-03-21T05:51:53.024Z,8.70
2023-03-21T05:54:21.100Z,8.90
2023-03-21T05:56:49.271Z,9.00
2023-03-21T05:59:17.660Z,8.90
2023-03-21T06:01:46.016Z,8.90
2023-03-21T06:04:14.395Z,8.90
2023-03-21T06:06:43.970Z,9.00
2023-03-21T06:09:12.079Z,9.00
2023-03-21T06:11:42.128Z,9.00
2023-03-21T06:14:10.456Z,8.90
2023-03-21T06:16:38.540Z,8.90
2023-03-21T06:19:07.070Z,9.00
2023-03-21T06:21:35.513Z,8.90
2023-03-21T06:24:05.273Z,9.00
2023-03-21T06:26:33.327Z,9.00
2023-03-21T06:29:01.648Z,9.00
2023-03-21T06:31:30.232Z,9.00
2023-03-21T06:33:58.344Z,9.00
2023-03-21T06:36:27.078Z,8.90
2023-03-21T06:38:55.492Z,8.90
2023-03-21T06:41:25.068Z,9.00
2023-03-21T06:43:53.143Z,9.10
2023-03-21T06:46:21.592Z,9.10
2023-03-21T06:48:49.987Z,9.20
2023-03-21T06:51:18.359Z,9.00
2023-03-21T06:53:46.737Z,9.00
2023-03-21T06:56:16.111Z,9.10
2023-03-21T06:58:45.674Z,9.00
2023-03-21T07:01:14.661Z,9.00
2023-03-21T07:03:43.335Z,9.20
2023-03-21T07:06:13.601Z,9.20
2023-03-21T07:08:43.207Z,9.20
2023-03-21T07:11:11.327Z,9.20
2023-03-21T07:13:39.897Z,9.20
2023-03-21T07:16:10.845Z,9.40
2023-03-21T07:18:38.983Z,9.60
2023-03-21T07:21:07.589Z,9.50
2023-03-21T07:23:35.997Z,9.50
2023-03-21T07:26:04.303Z,9.60
2023-03-21T07:28:33.304Z,9.60
2023-03-21T07:31:04.309Z,9.60
2023-03-21T07:33:34.544Z,9.60
2023-03-21T07:36:03.685Z,9.70
2023-03-21T07:38:32.028Z,9.70
2023-03-21T07:41:00.896Z,9.90
2023-03-21T07:43:28.993Z,9.80
2023-03-21T07:45:58.730Z,9.80
2023-03-21T07:48:26.971Z,9.90
2023-03-21T07:50:56.527Z,10.00
2023-03-21T07:53:24.945Z,10.00
2023-03-21T07:55:53.808Z,10.00
2023-03-21T07:58:21.984Z,10.00
2023-03-21T08:00:50.052Z,10.10
2023-03-21T08:03:18.243Z,10.10
2023-03-21T08:05:47.460Z,10.10
2023-03-21T08:08:17.362Z,10.10
2023-03-21T08:10:45.626Z,10.10
2023-03-21T08:13:14.477Z,10.10
2023-03-21T08:15:42.713Z,10.10
2023-03-21T08:18:11.941Z,10.20
2023-03-21T08:20:41.296Z,10.20
2023-03-21T08:23:09.418Z,10.30
2023-03-21T08:25:39.210Z,10.30
2023-03-21T08:28:07.860Z,10.30
2023-03-21T08:30:36.103Z,10.40
2023-03-21T08:33:05.568Z,10.50
2023-03-21T08:35:34.475Z,10.30
2023-03-21T08:38:03.692Z,10.40
2023-03-21T08:40:31.835Z,10.40
2023-03-21T08:43:01.391Z,10.40
2023-03-21T08:45:30.211Z,10.50
2023-03-21T08:47:58.542Z,10.60
2023-03-21T08:50:29.654Z,10.70
2023-03-21T08:52:57.718Z,10.50
2023-03-21T08:55:25.889Z,10.60
2023-03-21T08:57:54.275Z,10.60
2023-03-21T09:00:24.446Z,10.70
2023-03-21T09:02:54.492Z,10.80
2023-03-21T09:05:25.816Z,10.80
2023-03-21T09:07:54.379Z,10.80
2023-03-21T09:10:24.629Z,10.90
2023-03-21T09:12:55.413Z,11.00
2023-03-21T09:15:28.683Z,11.00
2023-03-21T09:17:58.996Z,10.80
2023-03-21T09:20:33.044Z,11.00
2023-03-21T09:23:01.909Z,11.20
2023-03-21T09:25:31.287Z,11.20
2023-03-21T09:28:00.634Z,11.30
2023-03-21T09:30:31.446Z,11.40
2023-03-21T09:33:01.675Z,11.50
2023-03-21T09:35:30.185Z,11.50
2023-03-21T09:37:59.325Z,11.40
2023-03-21T09:40:46.835Z,11.40
2023-03-21T09:43:23.713Z,11.40
2023-03-21T09:46:03.690Z,11.40
2023-03-21T09:48:47.029Z,11.50
2023-03-21T09:51:23.824Z,11.60
2023-03-21T09:53:57.030Z,11.70
2023-03-21T09:56:27.145Z,11.70
2023-03-21T09:58:59.332Z,11.80
2023-03-21T10:01:33.270Z,11.80
2023-03-21T10:04:04.878Z,11.80
2023-03-21T10:06:36.089Z,11.80
2023-03-21T10:09:07.527Z,11.90
2023-03-21T10:11:44.278Z,11.90
2023-03-21T10:14:18.760Z,11.90
2023-03-21T10:16:50.551Z,12.00
2023-03-21T10:19:20.970Z,11.80
2023-03-21T10:22:02.317Z,11.90
2023-03-21T10:24:34.831Z,12.00
2023-03-21T10:27:04.334Z,12.10
2023-03-21T10:29:43.709Z,12.10
2023-03-21T10:32:16.498Z,12.20
2023-03-21T10:34:47.770Z,12.20
2023-03-21T10:37:16.867Z,12.30
2023-03-21T10:39:48.261Z,12.40
2023-03-21T10:42:21.543Z,12.50
2023-03-21T10:44:51.657Z,12.50
2023-03-21T10:47:24.690Z,12.50
2023-03-21T10:50:10.410Z,12.30
2023-03-21T10:52:46.304Z,12.50
2023-03-21T10:55:25.570Z,12.60
2023-03-21T10:58:03.772Z,12.60
2023-03-21T11:00:38.438Z,12.60
2023-03-21T11:03:09.906Z,12.60
2023-03-21T11:05:41.429Z,12.60
2023-03-21T11:08:15.142Z,12.70
2023-03-21T11:10:53.588Z,12.60
2023-03-21T11:13:27.145Z,12.70
2023-03-21T11:15:58.262Z,12.70
2023-03-21T11:18:32.116Z,12.70
2023-03-21T11:21:05.389Z,12.70
2023-03-21T11:23:37.630Z,12.60
2023-03-21T11:26:11.843Z,12.60
2023-03-21T11:28:41.961Z,12.70
2023-03-21T11:31:10.800Z,12.70
2023-03-21T11:33:44.716Z,12.80
2023-03-21T11:36:34.866Z,12.50
2023-03-21T11:39:15.926Z,12.30
2023-03-21T11:41:48.608Z,12.50
2023-03-21T11:44:33.404Z,12.70
2023-03-21T11:47:02.059Z,12.80
2023-03-21T11:49:32.445Z,12.90
2023-03-21T11:52:10.017Z,12.80
2023-03-21T11:54:52.908Z,12.70
2023-03-21T11:57:30.652Z,12.80
2023-03-21T12:00:05.014Z,12.80
2023-03-21T12:02:56.685Z,13.00
2023-03-21T12:05:30.333Z,13.00
2023-03-21T12:08:08.485Z,13.00
2023-03-21T12:10:46.301Z,13.20
2023-03-21T12:13:32.532Z,13.10
2023-03-21T12:16:11.653Z,13.20
2023-03-21T12:19:02.846Z,13.20
2023-03-21T12:21:39.241Z,13.10
2023-03-21T12:24:13.857Z,12.80
2023-03-21T12:26:47.805Z,12.90
2023-03-21T12:29:50.581Z,12.90
2023-03-21T12:32:35.445Z,13.10
2023-03-21T12:35:12.093Z,13.10
2023-03-21T12:37:55.521Z,13.20
2023-03-21T12:40:40.555Z,13.10
2023-03-21T12:43:40.288Z,13.00
2023-03-21T12:46:14.895Z,13.00
2023-03-21T12:48:47.838Z,13.10
2023-03-21T12:51:20.825Z,13.10
2023-03-21T12:54:01.624Z,13.10
2023-03-21T12:56:33.106Z,13.10
2023-03-21T12:59:09.177Z,13.30
2023-03-21T13:01:40.193Z,13.30
2023-03-21T13:04:33.871Z,13.40
2023-03-21T13:07:04.752Z,13.30
2023-03-21T13:09:38.354Z,13.30
2023-03-21T13:12:20.165Z,13.30
2023-03-21T13:15:00.477Z,13.40
2023-03-21T13:17:34.120Z,13.50
2023-03-21T13:20:11.102Z,13.30
2023-03-21T13:22:39.495Z,13.40
2023-03-21T13:25:20.079Z,13.40
2023-03-21T13:27:54.420Z,13.40
2023-03-21T13:30:26.115Z,13.60
2023-03-21T13:33:05.453Z,13.50
2023-03-21T13:35:41.662Z,13.50
2023-03-21T13:38:16.552Z,13.30
2023-03-21T13:40:50.692Z,13.50
2023-03-21T13:43:41.676Z,13.30
2023-03-21T13:46:11.816Z,13.40
2023-03-21T13:48:57.769Z,13.40
2023-03-21T13:51:47.855Z,13.30
2023-03-21T13:54:24.266Z,13.20
2023-03-21T13:57:01.263Z,13.30
2023-03-21T13:59:42.278Z,13.20
2023-03-21T14:02:28.960Z,13.20
2023-03-21T14:05:06.426Z,13.30
2023-03-21T14:07:36.940Z,13.20
2023-03-21T14:10:09.860Z,13.10
2023-03-21T14:12:43.501Z,13.20
2023-03-21T14:15:20.823Z,13.20
2023-03-21T14:17:54.085Z,12.90
2023-03-21T14:20:25.368Z,12.70
2023-03-21T14:22:53.536Z,13.00
2023-03-21T14:25:27.250Z,12.90
2023-03-21T14:28:01.240Z,12.80
2023-03-21T14:30:33.435Z,12.70
2023-03-21T14:33:09.103Z,12.70
2023-03-21T14:35:37.693Z,12.80
2023-03-21T14:38:08.986Z,12.70
2023-03-21T14:40:37.721Z,12.60
2023-03-21T14:43:08.192Z,12.70
2023-03-21T14:45:38.485Z,12.70
2023-03-21T14:48:09.777Z,12.60
2023-03-21T14:50:42.177Z,12.80
2023-03-21T14:53:17.155Z,12.70
2023-03-21T14:55:47.751Z,12.70
2023-03-21T14:58:19.291Z,12.70
2023-03-21T15:00:50.808Z,12.70
2023-03-21T15:03:20.519Z,12.70
2023-03-21T15:05:48.894Z,12.50
2023-03-21T15:08:19.554Z,12.60
2023-03-21T15:11:06.119Z,12.70
2023-03-21T15:13:38.350Z,12.70
2023-03-21T15:16:07.607Z,12.60
2023-03-21T15:18:38.344Z,12.60
2023-03-21T15:21:11.332Z,12.50
2023-03-21T15:23:43.001Z,12.50
2023-03-21T15:26:15.844Z,12.60
2023-03-21T15:28:46.666Z,12.40
2023-03-21T15:31:23.035Z,12.30
2023-03-21T15:33:53.180Z,12.30
2023-03-21T15:36:23.830Z,12.40
2023-03-21T15:38:52.616Z,12.40
2023-03-21T15:41:32.486Z,12.50
2023-03-21T15:44:14.588Z,12.30
2023-03-21T15:46:44.615Z,12.40
2023-03-21T15:49:21.182Z,12.30
2023-03-21T15:51:53.436Z,12.30
2023-03-21T15:54:25.915Z,12.30
2023-03-21T15:56:55.941Z,12.40
2023-03-21T15:59:29.081Z,12.40
2023-03-21T16:01:57.438Z,12.30
2023-03-21T16:04:26.857Z,12.30
2023-03-21T16:07:00.155Z,12.30
2023-03-21T16:09:29.287Z,12.20
2023-03-21T16:11:58.724Z,12.30
2023-03-21T16:14:28.838Z,12.10
2023-03-21T16:16:59.105Z,12.10
2023-03-21T16:19:29.690Z,12.10
2023-03-21T16:21:57.763Z,12.20
2023-03-21T16:24:26.285Z,12.20
2023-03-21T16:26:55.420Z,12.20
2023-03-21T16:29:23.636Z,12.10
2023-03-21T16:31:53.583Z,12.10
2023-03-21T16:34:21.793Z,12.00
2023-03-21T16:36:49.944Z,11.90
2023-03-21T16:39:20.742Z,11.90
2023-03-21T16:41:50.615Z,11.90
2023-03-21T16:44:19.077Z,11.70
2023-03-21T16:46:47.669Z,11.80
2023-03-21T16:49:26.201Z,11.90
2023-03-21T16:51:56.433Z,11.80
2023-03-21T16:54:25.293Z,11.70
2023-03-21T16:56:55.492Z,11.80
2023-03-21T16:59:24.187Z,11.70
2023-03-21T17:01:52.716Z,11.70
2023-03-21T17:04:22.557Z,11.70
2023-03-21T17:06:53.065Z,11.60
2023-03-21T17:09:23.703Z,11.40
2023-03-21T17:11:52.050Z,11.40
2023-03-21T17:14:21.853Z,11.50
2023-03-21T17:16:50.331Z,11.50
2023-03-21T17:19:20.435Z,11.40
2023-03-21T17:21:49.957Z,11.40
2023-03-21T17:24:18.069Z,11.40
2023-03-21T17:26:46.411Z,11.20
2023-03-21T17:29:15.362Z,11.30
2023-03-21T17:31:47.583Z,11.30
2023-03-21T17:34:15.914Z,11.30
2023-03-21T17:36:46.344Z,11.30
2023-03-21T17:39:19.821Z,11.30
2023-03-21T17:41:47.887Z,11.40
2023-03-21T17:44:16.419Z,11.50
2023-03-21T17:46:44.872Z,11.40
2023-03-21T17:49:15.893Z,11.30
2023-03-21T17:51:46.879Z,11.20
2023-03-21T17:54:16.863Z,11.20
2023-03-21T17:56:45.048Z,11.30
2023-03-21T17:59:14.696Z,10.90
2023-03-21T18:01:43.183Z,10.90
2023-03-21T18:04:12.377Z,10.90
2023-03-21T18:06:41.096Z,10.90
2023-03-21T18:09:12.004Z,11.10
2023-03-21T18:11:41.951Z,11.20
2023-03-21T18:14:17.511Z,11.20
2023-03-21T18:16:46.949Z,11.40
2023-03-21T18:19:15.366Z,11.40
2023-03-21T18:21:45.855Z,11.20
2023-03-21T18:24:14.334Z,11.30
2023-03-21T18:26:46.147Z,11.40
2023-03-21T18:32:07.444Z,11.30
2023-03-21T18:34:36.482Z,11.30
2023-03-21T18:37:04.824Z,11.40
2023-03-21T18:39:33.277Z,11.40
2023-03-21T18:42:04.161Z,11.40
2023-03-21T18:44:37.681Z,11.40
2023-03-21T18:47:06.635Z,11.50
2023-03-21T18:50:12.127Z,11.50
2023-03-21T18:52:23.244Z,11.40
2023-03-21T18:54:51.671Z,11.30
2023-03-21T18:57:38.646Z,11.20
2023-03-21T19:00:13.569Z,11.20
2023-03-21T19:02:47.424Z,11.10
2023-03-21T19:05:17.694Z,11.10
2023-03-21T19:07:46.582Z,10.90
2023-03-21T19:10:20.490Z,11.00
2023-03-21T19:12:51.619Z,11.10
2023-03-21T19:15:21.754Z,11.20
2023-03-21T19:18:34.305Z,11.10
2023-03-21T19:20:44.547Z,11.10
2023-03-21T19:23:12.745Z,11.20
2023-03-21T19:25:40.957Z,11.20
2023-03-21T19:28:11.117Z,11.20
2023-03-21T19:30:39.568Z,11.10
2023-03-21T19:33:08.463Z,11.00
2023-03-21T19:35:40.874Z,10.90
2023-03-21T19:38:09.320Z,10.90
2023-03-21T19:40:39.691Z,11.00
2023-03-21T19:43:31.206Z,11.00
2023-03-21T19:45:58.091Z,11.00
2023-03-21T19:48:27.084Z,11.00
2023-03-21T19:53:44.326Z,10.80
2023-03-21T19:56:21.663Z,10.80
2023-03-21T19:58:52.214Z,10.90
2023-03-21T20:01:21.881Z,10.80
2023-03-21T20:03:50.252Z,10.80
2023-03-21T20:06:19.195Z,10.80
2023-03-21T20:09:27.309Z,10.80
2023-03-21T20:11:35.897Z,10.70
2023-03-21T20:14:04.405Z,10.70
2023-03-21T20:16:35.680Z,10.70
2023-03-21T20:19:04.700Z,10.70
2023-03-21T20:21:42.235Z,10.60
2023-03-21T20:24:14.173Z,10.70
2023-03-21T20:26:42.514Z,10.70
2023-03-21T20:30:03.878Z,10.70
2023-03-21T20:32:00.803Z,10.70
2023-03-21T20:34:30.537Z,10.70
2023-03-21T20:36:59.505Z,10.80
2023-03-21T20:39:29.805Z,10.70
2023-03-21T20:41:59.579Z,10.60
2023-03-21T20:44:51.874Z,10.70
2023-03-21T20:47:17.492Z,10.60
2023-03-21T20:49:45.619Z,10.60
2023-03-21T20:55:03.146Z,10.60
2023-03-21T20:57:31.534Z,10.60
2023-03-21T21:00:00.060Z,10.60
2023-03-21T21:02:29.572Z,10.60
2023-03-21T21:05:24.183Z,10.60
2023-03-21T21:07:46.151Z,10.50
2023-03-21T21:10:17.182Z,10.60
2023-03-21T21:12:46.301Z,10.60
2023-03-21T21:15:16.653Z,10.60
2023-03-21T21:18:04.825Z,10.60
2023-03-21T21:20:34.272Z,10.60
2023-03-21T21:23:02.707Z,10.60
2023-03-21T21:25:32.825Z,10.50
2023-03-21T21:28:02.331Z,10.60
2023-03-21T21:30:31.910Z,10.50
2023-03-21T21:33:01.735Z,10.50
2023-03-21T21:35:30.280Z,10.60
2023-03-21T21:37:58.421Z,10.50
2023-03-21T21:40:27.027Z,10.60
2023-03-21T21:42:55.529Z,10.40
2023-03-21T21:45:23.611Z,10.40
2023-03-21T21:47:52.251Z,10.50
2023-03-21T21:50:22.479Z,10.40
2023-03-21T21:52:54.390Z,10.40
2023-03-21T21:55:23.082Z,10.40
2023-03-21T21:57:51.776Z,10.40
2023-03-21T22:00:21.430Z,10.40
2023-03-21T22:02:49.594Z,10.40
2023-03-21T22:05:19.351Z,10.40
2023-03-21T22:07:49.828Z,10.40
2023-03-21T22:10:18.282Z,10.30
2023-03-21T22:12:46.646Z,10.30
2023-03-21T22:15:15.116Z,10.30
2023-03-21T22:17:43.617Z,10.20
2023-03-21T22:20:15.300Z,10.20
2023-03-21T22:22:44.337Z,10.30
2023-03-21T22:25:15.737Z,10.30
2023-03-21T22:27:45.038Z,10.20
2023-03-21T22:30:17.584Z,10.20
2023-03-21T22:32:56.379Z,10.20
2023-03-21T22:35:31.196Z,10.20
2023-03-21T22:37:59.632Z,10.20
2023-03-21T22:40:29.105Z,10.20
2023-03-21T22:42:57.215Z,10.20
2023-03-21T22:45:25.640Z,10.10
2023-03-21T22:47:53.736Z,10.10
2023-03-21T22:50:21.889Z,10.00
2023-03-21T22:52:49.967Z,10.00
2023-03-21T22:55:18.510Z,10.00
2023-03-21T22:57:48.032Z,10.00
2023-03-21T23:00:18.347Z,10.00
2023-03-21T23:02:46.508Z,10.00
2023-03-21T23:05:14.637Z,10.00
2023-03-21T23:07:42.700Z,10.00
2023-03-21T23:10:12.205Z,10.00
2023-03-21T23:12:40.746Z,10.00
2023-03-21T23:15:11.716Z,10.00
2023-03-21T23:17:39.875Z,9.90
2023-03-21T23:20:10.335Z,10.00
2023-03-21T23:22:39.097Z,10.00
2023-03-21T23:25:08.127Z,9.90
2023-03-21T23:27:37.336Z,10.00
2023-03-21T23:30:06.977Z,10.00
2023-03-21T23:32:36.927Z,10.00
2023-03-21T23:35:05.363Z,9.90
2023-03-21T23:37:33.767Z,9.90
2023-03-21T23:40:02.326Z,9.90
2023-03-21T23:42:31.178Z,9.80
2023-03-21T23:44:59.244Z,9.70
2023-03-21T23:47:27.307Z,9.80
2023-03-21T23:49:56.829Z,9.80
2023-03-21T23:52:24.894Z,9.90
2023-03-21T23:54:52.997Z,9.90
2023-03-21T23:57:21.953Z,9.90
2023-03-21T23:59:50.337Z,9.90
